Souhou Maru — JD3702 — position and weather

sailwx.info

Track history (hours):
 
Tides and Currents Weather Stations Pressure Air Temp Water Temp Dewpoint Dewpoint Depression Visibility Wind Speed Wind Dir Waves Ship Positions

Souhou Maru

Last reported at 2018-Jan-21 16:01 UTC. Time now 2018-Jan-21 16:26 UTC.
Position N 34°08' E 134°45'.

Length 70 m; draft 4.8 m.

Type: Cargo ship. MMSI: 431005315.

Date/timePositionNaut miles runAvg speedWind from/ knotsBaromVisibWave heightAir tempDewpointWater temp
2018-Jan-21 16:01N 34°08' E 134°45'611.1
2018-Jan-21 15:30N 34°12' E 134°40'610.9
2018-Jan-21 15:00N 34°16' E 134°36'5 9.2
2018-Jan-21 14:30N 34°18' E 134°30'4 8.9
2018-Jan-21 14:00N 34°20' E 134°25'5 9.0
2018-Jan-21 13:27N 34°21' E 134°20'8 8.5
2018-Jan-21 12:33N 34°24' E 134°11'75 8.6
2018-Jan-21 03:52N 34°01' E 132°46'411.6
2018-Jan-21 03:30N 33°57' E 132°43'611.2
2018-Jan-21 02:59N 33°54' E 132°38'610.9
2018-Jan-21 02:24N 33°49' E 132°33'510.6
2018-Jan-21 01:56N 33°46' E 132°28'510.8
2018-Jan-21 01:29N 33°42' E 132°24'2211.3
2018-Jan-20 23:30N 33°26' E 132°05'611.5
2018-Jan-20 23:00N 33°22' E 132°01'510.4
2018-Jan-20 22:30N 33°17' E 131°60'6 0.4
2018-Jan-20 07:27N 33°12' E 131°55'712.6
2018-Jan-20 06:52N 33°20' E 131°53'513.3
2018-Jan-20 06:30N 33°24' E 131°51'713.4
2018-Jan-20 06:00N 33°30' E 131°48'713.7
2018-Jan-20 05:30N 33°37' E 131°45'713.5
2018-Jan-20 05:00N 33°41' E 131°39'713.1
2018-Jan-20 04:31N 33°44' E 131°32'612.6
2018-Jan-20 04:00N 33°46' E 131°24'612.4
2018-Jan-20 03:31N 33°48' E 131°17'612.0
2018-Jan-20 03:01N 33°50' E 131°11'611.7
2018-Jan-20 02:31N 33°52' E 131°04'4 8.4
2018-Jan-20 02:00N 33°51' E 130°59'0 0.1
2018-Jan-20 01:30N 33°51' E 130°60'0 0.0
2018-Jan-20 01:01N 33°51' E 130°60'0 0.0
2018-Jan-20 00:31N 33°51' E 130°60'0 0.0
2018-Jan-20 00:01N 33°51' E 130°60'0 0.0
2018-Jan-19 23:31N 33°51' E 130°60'0 0.1
2018-Jan-19 23:01N 33°51' E 130°59'2 3.5
2018-Jan-19 22:30N 33°52' E 131°01'0 0.0
2018-Jan-19 22:00N 33°52' E 131°01'0 0.0
2018-Jan-19 21:31N 33°52' E 131°01'0 0.0
2018-Jan-19 20:59N 33°52' E 131°01'0 0.0
2018-Jan-19 20:30N 33°52' E 131°01'0 0.0
2018-Jan-19 20:01N 33°52' E 131°01'0 0.0
2018-Jan-19 19:31N 33°52' E 131°01'0 0.0
2018-Jan-19 19:01N 33°52' E 131°01'0 0.0
2018-Jan-19 18:31N 33°52' E 131°01'0 0.0
2018-Jan-19 18:00N 33°52' E 131°01'0 0.0
2018-Jan-19 17:30N 33°52' E 131°01'0 0.0
2018-Jan-19 17:00N 33°52' E 131°01'0 0.0
2018-Jan-19 16:31N 33°52' E 131°01'0 0.1
2018-Jan-19 16:01N 33°52' E 131°01'0 0.0
2018-Jan-19 15:31N 33°52' E 131°01'0 0.1
2018-Jan-19 15:00N 33°52' E 131°01'0 0.0
2018-Jan-19 14:31N 33°52' E 131°01'0 0.1
2018-Jan-19 14:01N 33°52' E 131°01'4 7.2
2018-Jan-19 13:31N 33°52' E 131°05'510.3
2018-Jan-19 13:01N 33°51' E 131°12'510.2
2018-Jan-19 12:31N 33°51' E 131°18'510.8
2018-Jan-19 12:00N 33°50' E 131°24'511.0
2018-Jan-19 11:31N 33°49' E 131°31'510.8
2018-Jan-19 11:01N 33°49' E 131°37'610.9
2018-Jan-19 10:30N 33°48' E 131°44'1410.8
2018-Jan-19 09:09N 33°46' E 132°01'211.2
2018-Jan-19 08:59N 33°46' E 132°03'710.9
2018-Jan-19 08:20N 33°49' E 132°11'310.7
2018-Jan-19 08:01N 33°50' E 132°15'610.9
2018-Jan-19 07:30N 33°50' E 132°22'611.1
2018-Jan-19 06:58N 33°54' E 132°27'612.1
2018-Jan-19 06:27N 33°58' E 132°33'511.7
2018-Jan-19 06:00N 34°01' E 132°38'8910.0
2018-Jan-18 21:02N 34°21' E 134°23'0 9.9
2018-Jan-18 21:00N 34°21' E 134°23'510.7
2018-Jan-18 20:29N 34°19' E 134°29'510.7
2018-Jan-18 19:59N 34°17' E 134°35'1310.1
2018-Jan-18 18:44N 34°08' E 134°46'310.0
2018-Jan-18 18:26N 34°05' E 134°48'410.2
2018-Jan-18 18:00N 34°02' E 134°51'510.3
2018-Jan-18 17:30N 33°58' E 134°56'510.0
2018-Jan-18 16:59N 33°54' E 134°60'106 7.1
2018-Jan-18 02:01N 34°34' E 136°59'110.7
2018-Jan-18 01:55N 34°35' E 136°58'4 9.9
2018-Jan-18 01:30N 34°39' E 136°58'510.4
2018-Jan-18 00:59N 34°44' E 136°59'  
Track history (hours):
 
Tides and Currents Weather Stations Pressure Air Temp Water Temp Dewpoint Dewpoint Depression Visibility Wind Speed Wind Dir Waves Ship Positions

Souhou Maru

Last reported at 2018-Jan-21 16:01 UTC. Time now 2018-Jan-21 16:26 UTC.
Position N 34°08' E 134°45'.

Length 70 m; draft 4.8 m.

Type: Cargo ship. MMSI: 431005315.

Date/timePositionNaut miles runAvg speedWind from/ knotsBaromVisibWave heightAir tempDewpointWater temp
2018-Jan-21 16:01N 34°08' E 134°45'611.1
2018-Jan-21 15:30N 34°12' E 134°40'610.9
2018-Jan-21 15:00N 34°16' E 134°36'5 9.2
2018-Jan-21 14:30N 34°18' E 134°30'4 8.9
2018-Jan-21 14:00N 34°20' E 134°25'5 9.0
2018-Jan-21 13:27N 34°21' E 134°20'8 8.5
2018-Jan-21 12:33N 34°24' E 134°11'75 8.6
2018-Jan-21 03:52N 34°01' E 132°46'411.6
2018-Jan-21 03:30N 33°57' E 132°43'611.2
2018-Jan-21 02:59N 33°54' E 132°38'610.9
2018-Jan-21 02:24N 33°49' E 132°33'510.6
2018-Jan-21 01:56N 33°46' E 132°28'510.8
2018-Jan-21 01:29N 33°42' E 132°24'2211.3
2018-Jan-20 23:30N 33°26' E 132°05'611.5
2018-Jan-20 23:00N 33°22' E 132°01'510.4
2018-Jan-20 22:30N 33°17' E 131°60'6 0.4
2018-Jan-20 07:27N 33°12' E 131°55'712.6
2018-Jan-20 06:52N 33°20' E 131°53'513.3
2018-Jan-20 06:30N 33°24' E 131°51'713.4
2018-Jan-20 06:00N 33°30' E 131°48'713.7
2018-Jan-20 05:30N 33°37' E 131°45'713.5
2018-Jan-20 05:00N 33°41' E 131°39'713.1
2018-Jan-20 04:31N 33°44' E 131°32'612.6
2018-Jan-20 04:00N 33°46' E 131°24'612.4
2018-Jan-20 03:31N 33°48' E 131°17'612.0
2018-Jan-20 03:01N 33°50' E 131°11'611.7
2018-Jan-20 02:31N 33°52' E 131°04'4 8.4
2018-Jan-20 02:00N 33°51' E 130°59'0 0.1
2018-Jan-20 01:30N 33°51' E 130°60'0 0.0
2018-Jan-20 01:01N 33°51' E 130°60'0 0.0
2018-Jan-20 00:31N 33°51' E 130°60'0 0.0
2018-Jan-20 00:01N 33°51' E 130°60'0 0.0
2018-Jan-19 23:31N 33°51' E 130°60'0 0.1
2018-Jan-19 23:01N 33°51' E 130°59'2 3.5
2018-Jan-19 22:30N 33°52' E 131°01'0 0.0
2018-Jan-19 22:00N 33°52' E 131°01'0 0.0
2018-Jan-19 21:31N 33°52' E 131°01'0 0.0
2018-Jan-19 20:59N 33°52' E 131°01'0 0.0
2018-Jan-19 20:30N 33°52' E 131°01'0 0.0
2018-Jan-19 20:01N 33°52' E 131°01'0 0.0
2018-Jan-19 19:31N 33°52' E 131°01'0 0.0
2018-Jan-19 19:01N 33°52' E 131°01'0 0.0
2018-Jan-19 18:31N 33°52' E 131°01'0 0.0
2018-Jan-19 18:00N 33°52' E 131°01'0 0.0
2018-Jan-19 17:30N 33°52' E 131°01'0 0.0
2018-Jan-19 17:00N 33°52' E 131°01'0 0.0
2018-Jan-19 16:31N 33°52' E 131°01'0 0.1
2018-Jan-19 16:01N 33°52' E 131°01'0 0.0
2018-Jan-19 15:31N 33°52' E 131°01'0 0.1
2018-Jan-19 15:00N 33°52' E 131°01'0 0.0
2018-Jan-19 14:31N 33°52' E 131°01'0 0.1
2018-Jan-19 14:01N 33°52' E 131°01'4 7.2
2018-Jan-19 13:31N 33°52' E 131°05'510.3
2018-Jan-19 13:01N 33°51' E 131°12'510.2
2018-Jan-19 12:31N 33°51' E 131°18'510.8
2018-Jan-19 12:00N 33°50' E 131°24'511.0
2018-Jan-19 11:31N 33°49' E 131°31'510.8
2018-Jan-19 11:01N 33°49' E 131°37'610.9
2018-Jan-19 10:30N 33°48' E 131°44'1410.8
2018-Jan-19 09:09N 33°46' E 132°01'211.2
2018-Jan-19 08:59N 33°46' E 132°03'710.9
2018-Jan-19 08:20N 33°49' E 132°11'310.7
2018-Jan-19 08:01N 33°50' E 132°15'610.9
2018-Jan-19 07:30N 33°50' E 132°22'611.1
2018-Jan-19 06:58N 33°54' E 132°27'612.1
2018-Jan-19 06:27N 33°58' E 132°33'511.7
2018-Jan-19 06:00N 34°01' E 132°38'8910.0
2018-Jan-18 21:02N 34°21' E 134°23'0 9.9
2018-Jan-18 21:00N 34°21' E 134°23'510.7
2018-Jan-18 20:29N 34°19' E 134°29'510.7
2018-Jan-18 19:59N 34°17' E 134°35'1310.1
2018-Jan-18 18:44N 34°08' E 134°46'310.0
2018-Jan-18 18:26N 34°05' E 134°48'410.2
2018-Jan-18 18:00N 34°02' E 134°51'510.3
2018-Jan-18 17:30N 33°58' E 134°56'510.0
2018-Jan-18 16:59N 33°54' E 134°60'106 7.1
2018-Jan-18 02:01N 34°34' E 136°59'110.7
2018-Jan-18 01:55N 34°35' E 136°58'4 9.9
2018-Jan-18 01:30N 34°39' E 136°58'510.4
2018-Jan-18 00:59N 34°44' E 136°59'  

Dump ship's entire track history